Main page
Satellite images 10-day forecastsClimateMarine weather Cyclones Lightning AirportsFAQ Newsletter About
Weather : Europe Africa North America South America Asia Australia-Oceania Others
Languages Contact

London-Heathrow, England

London Heathrow Airport

latitude: 51-29N, longitude: 000-27W, elevation: 24 m


METAR: EGLL 302150Z 34003KT CAVOK 16/05 Q1021 NOSIG
TAF: EGLL 301653Z 3018/3124 32010KT CAVOK BECMG 3021/3024 VRB03KT BECMG 3109/3112 21010KT

Time: 23:07 (22:07 UTC)

Current weather observation

The report was made 17 minutes ago, at 21:50 UTC
Wind 3 kt from the North/Northwest
Temperature 16°C
Humidity 48%
Pressure 1021 hPa
Visibility 10 km or more
no clouds below 1500 m and no cumulonimbus

Change units

Forecast

The report was made 5 hours and 14 minutes ago, at 16:53 UTC
Forecast valid from 30 at 18 UTC to 31 at 24 UTC
Wind 10 kt from the Northwest
Visibility 10 km or more
no clouds below 1500 m and no cumulonimbus
Becoming
from 30 at 21 UTC to 30 at 24 UTC
Wind 3 kt from variable directions
Becoming
from 31 at 09 UTC to 31 at 12 UTC
Wind 10 kt from the South/Southwest
The information on this site is subject to a disclaimer
Weather : Europe Africa North America South America Asia Australia-Oceania Others
Satellite images 10-day forecastsClimateMarine weather Cyclones Lightning AirportsFAQ Languages Contact Newsletter About